sensor_id;sensor_type;location;lat;lon;timestamp;temperature;humidity
9847;DHT22;68671;50.084;8.794;2024-01-25T00:01:48;12.70;99.90
9847;DHT22;68671;50.084;8.794;2024-01-25T00:04:15;12.70;99.90
9847;DHT22;68671;50.084;8.794;2024-01-25T00:06:42;12.70;99.90
9847;DHT22;68671;50.084;8.794;2024-01-25T00:09:10;12.70;99.90
9847;DHT22;68671;50.084;8.794;2024-01-25T00:11:38;12.60;99.90
9847;DHT22;68671;50.084;8.794;2024-01-25T00:14:04;12.70;99.90
9847;DHT22;68671;50.084;8.794;2024-01-25T00:16:31;12.60;99.90
9847;DHT22;68671;50.084;8.794;2024-01-25T00:18:58;12.70;99.90
9847;DHT22;68671;50.084;8.794;2024-01-25T00:21:25;12.70;99.90
9847;DHT22;68671;50.084;8.794;2024-01-25T00:23:52;12.70;99.90
9847;DHT22;68671;50.084;8.794;2024-01-25T00:26:20;12.70;99.90
9847;DHT22;68671;50.084;8.794;2024-01-25T00:28:47;12.80;99.90
9847;DHT22;68671;50.084;8.794;2024-01-25T00:31:14;12.80;99.90
9847;DHT22;68671;50.084;8.794;2024-01-25T00:33:41;12.80;99.90
9847;DHT22;68671;50.084;8.794;2024-01-25T00:36:09;12.80;99.90
9847;DHT22;68671;50.084;8.794;2024-01-25T00:38:37;12.70;99.90
9847;DHT22;68671;50.084;8.794;2024-01-25T00:41:08;12.70;99.90
9847;DHT22;68671;50.084;8.794;2024-01-25T00:43:37;12.70;99.90
9847;DHT22;68671;50.084;8.794;2024-01-25T00:46:05;12.70;99.90
9847;DHT22;68671;50.084;8.794;2024-01-25T00:48:32;12.70;99.90
9847;DHT22;68671;50.084;8.794;2024-01-25T00:50:59;12.70;99.90
9847;DHT22;68671;50.084;8.794;2024-01-25T00:53:27;12.70;99.90
9847;DHT22;68671;50.084;8.794;2024-01-25T00:55:54;12.70;99.90
9847;DHT22;68671;50.084;8.794;2024-01-25T00:58:22;12.70;99.90
9847;DHT22;68671;50.084;8.794;2024-01-25T01:00:51;12.70;99.90
9847;DHT22;68671;50.084;8.794;2024-01-25T01:03:18;12.60;99.90
9847;DHT22;68671;50.084;8.794;2024-01-25T01:05:46;12.60;99.90
9847;DHT22;68671;50.084;8.794;2024-01-25T01:08:13;12.60;99.90
9847;DHT22;68671;50.084;8.794;2024-01-25T01:10:40;12.60;99.90
9847;DHT22;68671;50.084;8.794;2024-01-25T01:13:07;12.50;99.90
9847;DHT22;68671;50.084;8.794;2024-01-25T01:15:34;12.50;99.90
9847;DHT22;68671;50.084;8.794;2024-01-25T01:18:03;12.50;99.90
9847;DHT22;68671;50.084;8.794;2024-01-25T01:20:30;12.40;99.90
9847;DHT22;68671;50.084;8.794;2024-01-25T01:22:57;12.40;99.90
9847;DHT22;68671;50.084;8.794;2024-01-25T01:25:24;12.40;99.90
9847;DHT22;68671;50.084;8.794;2024-01-25T01:27:51;12.30;99.90
9847;DHT22;68671;50.084;8.794;2024-01-25T01:30:18;12.30;99.90
9847;DHT22;68671;50.084;8.794;2024-01-25T01:32:46;12.30;99.90
9847;DHT22;68671;50.084;8.794;2024-01-25T01:35:14;12.30;99.90
9847;DHT22;68671;50.084;8.794;2024-01-25T01:37:41;12.30;99.90
9847;DHT22;68671;50.084;8.794;2024-01-25T01:40:09;12.20;99.90
9847;DHT22;68671;50.084;8.794;2024-01-25T01:42:36;12.20;99.90
9847;DHT22;68671;50.084;8.794;2024-01-25T01:45:03;12.20;99.90
9847;DHT22;68671;50.084;8.794;2024-01-25T01:47:30;12.30;99.90
9847;DHT22;68671;50.084;8.794;2024-01-25T01:49:58;12.30;99.90
9847;DHT22;68671;50.084;8.794;2024-01-25T01:52:26;12.30;99.90
9847;DHT22;68671;50.084;8.794;2024-01-25T01:54:53;12.30;99.90
9847;DHT22;68671;50.084;8.794;2024-01-25T01:57:20;12.40;99.90
9847;DHT22;68671;50.084;8.794;2024-01-25T01:59:47;12.40;99.90
9847;DHT22;68671;50.084;8.794;2024-01-25T02:02:15;12.40;99.90
9847;DHT22;68671;50.084;8.794;2024-01-25T02:04:43;12.40;99.90
9847;DHT22;68671;50.084;8.794;2024-01-25T02:07:10;12.40;99.90
9847;DHT22;68671;50.084;8.794;2024-01-25T02:09:39;12.40;99.90
9847;DHT22;68671;50.084;8.794;2024-01-25T02:12:06;12.30;99.90
9847;DHT22;68671;50.084;8.794;2024-01-25T02:14:33;12.40;99.90
9847;DHT22;68671;50.084;8.794;2024-01-25T02:17:00;12.40;99.90
9847;DHT22;68671;50.084;8.794;2024-01-25T02:19:27;12.40;99.90
9847;DHT22;68671;50.084;8.794;2024-01-25T02:21:54;12.40;99.90
9847;DHT22;68671;50.084;8.794;2024-01-25T02:24:25;12.40;99.90
9847;DHT22;68671;50.084;8.794;2024-01-25T02:26:52;12.40;99.90
9847;DHT22;68671;50.084;8.794;2024-01-25T02:29:19;12.30;99.90
9847;DHT22;68671;50.084;8.794;2024-01-25T02:31:46;12.30;99.90
9847;DHT22;68671;50.084;8.794;2024-01-25T02:34:13;12.30;99.90
9847;DHT22;68671;50.084;8.794;2024-01-25T02:36:39;12.30;99.90
9847;DHT22;68671;50.084;8.794;2024-01-25T02:39:06;12.20;99.90
9847;DHT22;68671;50.084;8.794;2024-01-25T02:41:34;12.20;99.90
9847;DHT22;68671;50.084;8.794;2024-01-25T02:44:01;12.20;99.90
9847;DHT22;68671;50.084;8.794;2024-01-25T02:46:28;12.10;99.90
9847;DHT22;68671;50.084;8.794;2024-01-25T02:48:55;12.10;99.90
9847;DHT22;68671;50.084;8.794;2024-01-25T02:51:22;12.10;99.90
9847;DHT22;68671;50.084;8.794;2024-01-25T02:53:49;12.00;99.90
9847;DHT22;68671;50.084;8.794;2024-01-25T02:56:16;12.00;99.90
9847;DHT22;68671;50.084;8.794;2024-01-25T02:58:44;12.00;99.90
9847;DHT22;68671;50.084;8.794;2024-01-25T03:01:11;11.90;99.90
9847;DHT22;68671;50.084;8.794;2024-01-25T03:03:38;11.80;99.90
9847;DHT22;68671;50.084;8.794;2024-01-25T03:06:06;11.90;99.90
9847;DHT22;68671;50.084;8.794;2024-01-25T03:08:34;11.80;99.90
9847;DHT22;68671;50.084;8.794;2024-01-25T03:11:01;11.80;99.90
9847;DHT22;68671;50.084;8.794;2024-01-25T03:13:30;11.70;99.90
9847;DHT22;68671;50.084;8.794;2024-01-25T03:15:58;11.70;99.90
9847;DHT22;68671;50.084;8.794;2024-01-25T03:18:25;11.60;99.90
9847;DHT22;68671;50.084;8.794;2024-01-25T03:20:52;11.70;99.90
9847;DHT22;68671;50.084;8.794;2024-01-25T03:23:19;11.60;99.90
9847;DHT22;68671;50.084;8.794;2024-01-25T03:25:48;11.60;99.90
9847;DHT22;68671;50.084;8.794;2024-01-25T03:28:15;11.60;99.90
9847;DHT22;68671;50.084;8.794;2024-01-25T03:30:44;11.50;99.90
9847;DHT22;68671;50.084;8.794;2024-01-25T03:33:12;11.60;99.90
9847;DHT22;68671;50.084;8.794;2024-01-25T03:35:39;11.60;99.90
9847;DHT22;68671;50.084;8.794;2024-01-25T03:38:06;11.50;99.90
9847;DHT22;68671;50.084;8.794;2024-01-25T03:40:33;11.50;99.90
9847;DHT22;68671;50.084;8.794;2024-01-25T03:43:00;11.50;99.90
9847;DHT22;68671;50.084;8.794;2024-01-25T03:45:27;11.50;99.90
9847;DHT22;68671;50.084;8.794;2024-01-25T03:47:55;11.40;99.90
9847;DHT22;68671;50.084;8.794;2024-01-25T03:50:24;11.30;99.90
9847;DHT22;68671;50.084;8.794;2024-01-25T03:52:51;11.40;99.90
9847;DHT22;68671;50.084;8.794;2024-01-25T03:55:17;11.30;99.90
9847;DHT22;68671;50.084;8.794;2024-01-25T03:57:44;11.30;99.90
9847;DHT22;68671;50.084;8.794;2024-01-25T04:00:12;11.30;99.90
9847;DHT22;68671;50.084;8.794;2024-01-25T04:02:39;11.30;99.90
9847;DHT22;68671;50.084;8.794;2024-01-25T04:05:07;11.20;99.90
9847;DHT22;68671;50.084;8.794;2024-01-25T04:07:36;11.20;99.90
9847;DHT22;68671;50.084;8.794;2024-01-25T04:10:03;11.20;99.90
9847;DHT22;68671;50.084;8.794;2024-01-25T04:12:30;11.10;99.90
9847;DHT22;68671;50.084;8.794;2024-01-25T04:14:58;11.10;99.90
9847;DHT22;68671;50.084;8.794;2024-01-25T04:17:25;11.10;99.90
9847;DHT22;68671;50.084;8.794;2024-01-25T04:19:52;11.10;99.90
9847;DHT22;68671;50.084;8.794;2024-01-25T04:22:19;11.00;99.90
9847;DHT22;68671;50.084;8.794;2024-01-25T04:24:48;11.00;99.90
9847;DHT22;68671;50.084;8.794;2024-01-25T04:27:15;11.00;99.90
9847;DHT22;68671;50.084;8.794;2024-01-25T04:29:43;11.00;99.90
9847;DHT22;68671;50.084;8.794;2024-01-25T04:32:10;11.00;99.90
9847;DHT22;68671;50.084;8.794;2024-01-25T04:34:37;11.00;99.90
9847;DHT22;68671;50.084;8.794;2024-01-25T04:37:04;11.00;99.90
9847;DHT22;68671;50.084;8.794;2024-01-25T04:39:31;10.90;99.90
9847;DHT22;68671;50.084;8.794;2024-01-25T04:41:59;10.90;99.90
9847;DHT22;68671;50.084;8.794;2024-01-25T04:44:26;10.90;99.90
9847;DHT22;68671;50.084;8.794;2024-01-25T04:46:53;10.90;99.90
9847;DHT22;68671;50.084;8.794;2024-01-25T04:49:20;10.90;99.90
9847;DHT22;68671;50.084;8.794;2024-01-25T04:51:47;10.90;99.90
9847;DHT22;68671;50.084;8.794;2024-01-25T04:54:14;10.80;99.90
9847;DHT22;68671;50.084;8.794;2024-01-25T04:56:41;10.80;99.90
9847;DHT22;68671;50.084;8.794;2024-01-25T04:59:09;10.80;99.90
9847;DHT22;68671;50.084;8.794;2024-01-25T05:01:36;10.80;99.90
9847;DHT22;68671;50.084;8.794;2024-01-25T05:04:03;10.80;99.90
9847;DHT22;68671;50.084;8.794;2024-01-25T05:06:30;10.80;99.90
9847;DHT22;68671;50.084;8.794;2024-01-25T05:08:57;10.80;99.90
9847;DHT22;68671;50.084;8.794;2024-01-25T05:11:24;10.80;99.90
9847;DHT22;68671;50.084;8.794;2024-01-25T05:13:52;10.70;99.90
9847;DHT22;68671;50.084;8.794;2024-01-25T05:16:20;10.70;99.90
9847;DHT22;68671;50.084;8.794;2024-01-25T05:18:47;10.70;99.90
9847;DHT22;68671;50.084;8.794;2024-01-25T05:21:14;10.60;99.90
9847;DHT22;68671;50.084;8.794;2024-01-25T05:23:41;10.60;99.90
9847;DHT22;68671;50.084;8.794;2024-01-25T05:26:08;10.50;99.90
9847;DHT22;68671;50.084;8.794;2024-01-25T05:28:35;10.50;99.90
9847;DHT22;68671;50.084;8.794;2024-01-25T05:31:02;10.40;99.90
9847;DHT22;68671;50.084;8.794;2024-01-25T05:33:30;10.50;99.90
9847;DHT22;68671;50.084;8.794;2024-01-25T05:35:57;10.50;99.90
9847;DHT22;68671;50.084;8.794;2024-01-25T05:38:24;10.50;99.90
9847;DHT22;68671;50.084;8.794;2024-01-25T05:40:51;10.40;99.90
9847;DHT22;68671;50.084;8.794;2024-01-25T05:43:18;10.40;99.90
9847;DHT22;68671;50.084;8.794;2024-01-25T05:45:45;10.40;99.90
9847;DHT22;68671;50.084;8.794;2024-01-25T05:48:12;10.40;99.90
9847;DHT22;68671;50.084;8.794;2024-01-25T05:50:41;10.40;99.90
9847;DHT22;68671;50.084;8.794;2024-01-25T05:53:07;10.30;99.90
9847;DHT22;68671;50.084;8.794;2024-01-25T05:55:34;10.30;99.90
9847;DHT22;68671;50.084;8.794;2024-01-25T05:58:01;10.30;99.90
9847;DHT22;68671;50.084;8.794;2024-01-25T06:00:29;10.30;99.90
9847;DHT22;68671;50.084;8.794;2024-01-25T06:02:55;10.30;99.90
9847;DHT22;68671;50.084;8.794;2024-01-25T06:05:22;10.30;99.90
9847;DHT22;68671;50.084;8.794;2024-01-25T06:07:51;10.30;99.90
9847;DHT22;68671;50.084;8.794;2024-01-25T06:10:18;10.30;99.90
9847;DHT22;68671;50.084;8.794;2024-01-25T06:12:44;10.30;99.90
9847;DHT22;68671;50.084;8.794;2024-01-25T06:15:11;10.30;99.90
9847;DHT22;68671;50.084;8.794;2024-01-25T06:17:38;10.30;99.90
9847;DHT22;68671;50.084;8.794;2024-01-25T06:20:06;10.30;99.90
9847;DHT22;68671;50.084;8.794;2024-01-25T06:22:33;10.30;99.90
9847;DHT22;68671;50.084;8.794;2024-01-25T06:25:01;10.30;99.90
9847;DHT22;68671;50.084;8.794;2024-01-25T06:27:29;10.30;99.90
9847;DHT22;68671;50.084;8.794;2024-01-25T06:29:56;10.30;99.90
9847;DHT22;68671;50.084;8.794;2024-01-25T06:32:23;10.30;99.90
9847;DHT22;68671;50.084;8.794;2024-01-25T06:34:50;10.20;99.90
9847;DHT22;68671;50.084;8.794;2024-01-25T06:37:17;10.20;99.90
9847;DHT22;68671;50.084;8.794;2024-01-25T06:39:44;10.10;99.90
9847;DHT22;68671;50.084;8.794;2024-01-25T06:42:12;10.10;99.90
9847;DHT22;68671;50.084;8.794;2024-01-25T06:44:39;10.10;99.90
9847;DHT22;68671;50.084;8.794;2024-01-25T06:47:06;10.10;99.90
9847;DHT22;68671;50.084;8.794;2024-01-25T06:49:33;10.10;99.90
9847;DHT22;68671;50.084;8.794;2024-01-25T06:52:00;10.10;99.90
9847;DHT22;68671;50.084;8.794;2024-01-25T06:54:27;10.10;99.90
9847;DHT22;68671;50.084;8.794;2024-01-25T06:56:54;10.10;99.90
9847;DHT22;68671;50.084;8.794;2024-01-25T06:59:23;10.00;99.90
9847;DHT22;68671;50.084;8.794;2024-01-25T07:01:50;10.00;99.90
9847;DHT22;68671;50.084;8.794;2024-01-25T07:04:17;10.00;99.90
9847;DHT22;68671;50.084;8.794;2024-01-25T07:06:44;10.10;99.90
9847;DHT22;68671;50.084;8.794;2024-01-25T07:09:11;10.10;99.90
9847;DHT22;68671;50.084;8.794;2024-01-25T07:11:38;10.10;99.90
9847;DHT22;68671;50.084;8.794;2024-01-25T07:14:05;10.10;99.90
9847;DHT22;68671;50.084;8.794;2024-01-25T07:16:33;10.10;99.90
9847;DHT22;68671;50.084;8.794;2024-01-25T07:19:00;10.10;99.90
9847;DHT22;68671;50.084;8.794;2024-01-25T07:21:28;10.10;99.90
9847;DHT22;68671;50.084;8.794;2024-01-25T07:23:58;10.10;99.90
9847;DHT22;68671;50.084;8.794;2024-01-25T07:26:25;10.10;99.90
9847;DHT22;68671;50.084;8.794;2024-01-25T07:28:52;10.10;99.90
9847;DHT22;68671;50.084;8.794;2024-01-25T07:31:23;10.10;99.90
9847;DHT22;68671;50.084;8.794;2024-01-25T07:33:52;10.00;99.90
9847;DHT22;68671;50.084;8.794;2024-01-25T07:36:20;10.10;99.90
9847;DHT22;68671;50.084;8.794;2024-01-25T07:38:47;10.10;99.90
9847;DHT22;68671;50.084;8.794;2024-01-25T07:41:14;10.10;99.90
9847;DHT22;68671;50.084;8.794;2024-01-25T07:43:41;10.10;99.90
9847;DHT22;68671;50.084;8.794;2024-01-25T07:46:09;10.10;99.90
9847;DHT22;68671;50.084;8.794;2024-01-25T07:48:36;10.10;99.90
9847;DHT22;68671;50.084;8.794;2024-01-25T07:51:10;10.10;99.90
9847;DHT22;68671;50.084;8.794;2024-01-25T07:53:37;10.10;99.90
9847;DHT22;68671;50.084;8.794;2024-01-25T07:56:06;10.20;99.90
9847;DHT22;68671;50.084;8.794;2024-01-25T07:58:34;10.20;99.90
9847;DHT22;68671;50.084;8.794;2024-01-25T08:01:03;10.20;99.90
9847;DHT22;68671;50.084;8.794;2024-01-25T08:03:31;10.20;99.90
9847;DHT22;68671;50.084;8.794;2024-01-25T08:05:58;10.30;99.90
9847;DHT22;68671;50.084;8.794;2024-01-25T08:08:26;10.30;99.90
9847;DHT22;68671;50.084;8.794;2024-01-25T08:10:53;10.30;99.90
9847;DHT22;68671;50.084;8.794;2024-01-25T08:13:20;10.30;99.90
9847;DHT22;68671;50.084;8.794;2024-01-25T08:15:48;10.40;99.90
9847;DHT22;68671;50.084;8.794;2024-01-25T08:18:15;10.40;99.90
9847;DHT22;68671;50.084;8.794;2024-01-25T08:20:44;10.40;99.90
9847;DHT22;68671;50.084;8.794;2024-01-25T08:23:12;10.40;99.90
9847;DHT22;68671;50.084;8.794;2024-01-25T08:25:40;10.50;99.90
9847;DHT22;68671;50.084;8.794;2024-01-25T08:28:07;10.50;99.90
9847;DHT22;68671;50.084;8.794;2024-01-25T08:30:34;10.60;99.90
9847;DHT22;68671;50.084;8.794;2024-01-25T08:33:01;10.60;99.90
9847;DHT22;68671;50.084;8.794;2024-01-25T08:35:28;10.60;99.90
9847;DHT22;68671;50.084;8.794;2024-01-25T08:37:55;10.60;99.90
9847;DHT22;68671;50.084;8.794;2024-01-25T08:40:25;10.70;99.90
9847;DHT22;68671;50.084;8.794;2024-01-25T08:42:54;10.70;99.90
9847;DHT22;68671;50.084;8.794;2024-01-25T08:45:23;10.70;99.90
9847;DHT22;68671;50.084;8.794;2024-01-25T08:47:50;10.70;99.90
9847;DHT22;68671;50.084;8.794;2024-01-25T08:50:18;10.80;99.90
9847;DHT22;68671;50.084;8.794;2024-01-25T08:52:45;10.80;99.90
9847;DHT22;68671;50.084;8.794;2024-01-25T08:55:13;10.80;99.90
9847;DHT22;68671;50.084;8.794;2024-01-25T08:57:40;10.80;99.90
9847;DHT22;68671;50.084;8.794;2024-01-25T09:00:09;10.80;99.90
9847;DHT22;68671;50.084;8.794;2024-01-25T09:02:37;10.80;99.90
9847;DHT22;68671;50.084;8.794;2024-01-25T09:05:04;10.90;99.90
9847;DHT22;68671;50.084;8.794;2024-01-25T09:07:32;10.80;99.90
9847;DHT22;68671;50.084;8.794;2024-01-25T09:09:59;10.90;99.90
9847;DHT22;68671;50.084;8.794;2024-01-25T09:12:26;10.80;99.90
9847;DHT22;68671;50.084;8.794;2024-01-25T09:14:53;10.80;99.90
9847;DHT22;68671;50.084;8.794;2024-01-25T09:17:21;10.80;99.90
9847;DHT22;68671;50.084;8.794;2024-01-25T09:19:49;10.90;99.90
9847;DHT22;68671;50.084;8.794;2024-01-25T09:22:16;10.90;99.90
9847;DHT22;68671;50.084;8.794;2024-01-25T09:24:45;10.90;99.90
9847;DHT22;68671;50.084;8.794;2024-01-25T09:27:12;11.00;99.90
9847;DHT22;68671;50.084;8.794;2024-01-25T09:29:39;11.00;99.90
9847;DHT22;68671;50.084;8.794;2024-01-25T09:32:06;11.10;99.90
9847;DHT22;68671;50.084;8.794;2024-01-25T09:34:35;11.10;99.90
9847;DHT22;68671;50.084;8.794;2024-01-25T09:37:03;11.10;99.90
9847;DHT22;68671;50.084;8.794;2024-01-25T09:39:31;11.10;99.90
9847;DHT22;68671;50.084;8.794;2024-01-25T09:41:58;11.20;99.90
9847;DHT22;68671;50.084;8.794;2024-01-25T09:44:25;11.20;99.90
9847;DHT22;68671;50.084;8.794;2024-01-25T09:46:52;11.30;99.90
9847;DHT22;68671;50.084;8.794;2024-01-25T09:49:19;11.30;99.90
9847;DHT22;68671;50.084;8.794;2024-01-25T09:51:50;11.30;99.90
9847;DHT22;68671;50.084;8.794;2024-01-25T09:54:18;11.40;99.90
9847;DHT22;68671;50.084;8.794;2024-01-25T09:56:50;11.40;99.90
9847;DHT22;68671;50.084;8.794;2024-01-25T09:59:20;11.40;99.90
9847;DHT22;68671;50.084;8.794;2024-01-25T10:01:48;11.50;99.90
9847;DHT22;68671;50.084;8.794;2024-01-25T10:04:15;11.50;99.90
9847;DHT22;68671;50.084;8.794;2024-01-25T10:06:45;11.60;99.90
9847;DHT22;68671;50.084;8.794;2024-01-25T10:09:13;11.60;99.90
9847;DHT22;68671;50.084;8.794;2024-01-25T10:11:40;11.60;99.90
9847;DHT22;68671;50.084;8.794;2024-01-25T10:14:07;11.70;99.90
9847;DHT22;68671;50.084;8.794;2024-01-25T10:16:35;11.70;99.90
9847;DHT22;68671;50.084;8.794;2024-01-25T10:19:06;11.70;99.90
9847;DHT22;68671;50.084;8.794;2024-01-25T10:21:35;11.80;99.90
9847;DHT22;68671;50.084;8.794;2024-01-25T10:24:02;11.80;99.90
9847;DHT22;68671;50.084;8.794;2024-01-25T10:26:31;11.80;99.90
9847;DHT22;68671;50.084;8.794;2024-01-25T10:28:58;11.80;99.90
9847;DHT22;68671;50.084;8.794;2024-01-25T10:31:27;11.80;99.90
9847;DHT22;68671;50.084;8.794;2024-01-25T10:33:55;11.80;99.90
9847;DHT22;68671;50.084;8.794;2024-01-25T10:36:23;11.90;99.90
9847;DHT22;68671;50.084;8.794;2024-01-25T10:38:51;11.80;99.90
9847;DHT22;68671;50.084;8.794;2024-01-25T10:41:20;11.90;99.90
9847;DHT22;68671;50.084;8.794;2024-01-25T10:43:49;11.90;99.90
9847;DHT22;68671;50.084;8.794;2024-01-25T10:46:17;11.90;99.90
9847;DHT22;68671;50.084;8.794;2024-01-25T10:48:44;11.90;99.90
9847;DHT22;68671;50.084;8.794;2024-01-25T10:51:11;12.00;99.90
9847;DHT22;68671;50.084;8.794;2024-01-25T10:53:44;12.00;99.90
9847;DHT22;68671;50.084;8.794;2024-01-25T10:56:11;12.10;99.90
9847;DHT22;68671;50.084;8.794;2024-01-25T10:58:40;12.20;99.90
9847;DHT22;68671;50.084;8.794;2024-01-25T11:01:13;12.30;99.90
9847;DHT22;68671;50.084;8.794;2024-01-25T11:03:45;12.40;99.90
9847;DHT22;68671;50.084;8.794;2024-01-25T11:06:15;12.40;99.90
9847;DHT22;68671;50.084;8.794;2024-01-25T11:09:04;12.50;99.90
9847;DHT22;68671;50.084;8.794;2024-01-25T11:11:31;12.50;99.90
9847;DHT22;68671;50.084;8.794;2024-01-25T11:13:59;12.60;99.90
9847;DHT22;68671;50.084;8.794;2024-01-25T11:16:32;12.60;99.90
9847;DHT22;68671;50.084;8.794;2024-01-25T11:19:00;12.70;99.90
9847;DHT22;68671;50.084;8.794;2024-01-25T11:21:42;12.80;99.90
9847;DHT22;68671;50.084;8.794;2024-01-25T11:24:14;12.90;99.90
9847;DHT22;68671;50.084;8.794;2024-01-25T11:26:43;12.90;99.90
9847;DHT22;68671;50.084;8.794;2024-01-25T11:29:15;12.90;99.90
9847;DHT22;68671;50.084;8.794;2024-01-25T11:31:45;13.00;99.90
9847;DHT22;68671;50.084;8.794;2024-01-25T11:34:15;13.00;99.90
9847;DHT22;68671;50.084;8.794;2024-01-25T11:36:49;13.00;99.90
9847;DHT22;68671;50.084;8.794;2024-01-25T11:39:16;13.00;99.90
9847;DHT22;68671;50.084;8.794;2024-01-25T11:41:44;13.00;99.90
9847;DHT22;68671;50.084;8.794;2024-01-25T11:44:16;13.00;99.90
9847;DHT22;68671;50.084;8.794;2024-01-25T11:46:44;13.00;99.90
9847;DHT22;68671;50.084;8.794;2024-01-25T11:49:11;13.00;99.90
9847;DHT22;68671;50.084;8.794;2024-01-25T11:51:38;13.00;99.90
9847;DHT22;68671;50.084;8.794;2024-01-25T11:54:06;13.10;99.90
9847;DHT22;68671;50.084;8.794;2024-01-25T11:56:35;13.00;99.90
9847;DHT22;68671;50.084;8.794;2024-01-25T11:59:04;13.10;99.90
9847;DHT22;68671;50.084;8.794;2024-01-25T12:01:31;13.10;99.90
9847;DHT22;68671;50.084;8.794;2024-01-25T12:04:00;13.10;99.90
9847;DHT22;68671;50.084;8.794;2024-01-25T12:06:27;13.20;99.90
9847;DHT22;68671;50.084;8.794;2024-01-25T12:08:56;13.20;99.90
9847;DHT22;68671;50.084;8.794;2024-01-25T12:11:32;13.20;99.90
9847;DHT22;68671;50.084;8.794;2024-01-25T12:13:59;13.20;99.90
9847;DHT22;68671;50.084;8.794;2024-01-25T12:16:29;13.20;99.90
9847;DHT22;68671;50.084;8.794;2024-01-25T12:19:00;13.30;99.90
9847;DHT22;68671;50.084;8.794;2024-01-25T12:21:27;13.30;99.90
9847;DHT22;68671;50.084;8.794;2024-01-25T12:23:54;13.40;99.90
9847;DHT22;68671;50.084;8.794;2024-01-25T12:26:21;13.40;99.90
9847;DHT22;68671;50.084;8.794;2024-01-25T12:28:48;13.30;99.90
9847;DHT22;68671;50.084;8.794;2024-01-25T12:31:15;13.40;99.90
9847;DHT22;68671;50.084;8.794;2024-01-25T12:33:44;13.40;99.90
9847;DHT22;68671;50.084;8.794;2024-01-25T12:36:14;13.40;99.90
9847;DHT22;68671;50.084;8.794;2024-01-25T12:38:44;13.50;99.90
9847;DHT22;68671;50.084;8.794;2024-01-25T12:41:14;13.50;99.90
9847;DHT22;68671;50.084;8.794;2024-01-25T12:43:41;13.50;99.90
9847;DHT22;68671;50.084;8.794;2024-01-25T12:46:10;13.50;99.90
9847;DHT22;68671;50.084;8.794;2024-01-25T12:48:43;13.50;99.90
9847;DHT22;68671;50.084;8.794;2024-01-25T12:51:10;13.50;99.90
9847;DHT22;68671;50.084;8.794;2024-01-25T12:53:42;13.50;99.90
9847;DHT22;68671;50.084;8.794;2024-01-25T12:56:12;13.50;99.90
9847;DHT22;68671;50.084;8.794;2024-01-25T12:58:43;13.50;99.90
9847;DHT22;68671;50.084;8.794;2024-01-25T13:01:13;13.50;99.90
9847;DHT22;68671;50.084;8.794;2024-01-25T13:03:40;13.50;99.90
9847;DHT22;68671;50.084;8.794;2024-01-25T13:06:07;13.50;99.90
9847;DHT22;68671;50.084;8.794;2024-01-25T13:08:34;13.50;99.90
9847;DHT22;68671;50.084;8.794;2024-01-25T13:11:02;13.60;99.90
9847;DHT22;68671;50.084;8.794;2024-01-25T13:13:31;13.60;99.90
9847;DHT22;68671;50.084;8.794;2024-01-25T13:16:01;13.60;99.90
9847;DHT22;68671;50.084;8.794;2024-01-25T13:18:30;13.60;99.90
9847;DHT22;68671;50.084;8.794;2024-01-25T13:20:59;13.60;99.90
9847;DHT22;68671;50.084;8.794;2024-01-25T13:23:31;13.60;99.90
9847;DHT22;68671;50.084;8.794;2024-01-25T13:26:20;13.60;99.90
9847;DHT22;68671;50.084;8.794;2024-01-25T13:28:47;13.60;99.90
9847;DHT22;68671;50.084;8.794;2024-01-25T13:31:17;13.60;99.90
9847;DHT22;68671;50.084;8.794;2024-01-25T13:33:44;13.50;99.90
9847;DHT22;68671;50.084;8.794;2024-01-25T13:36:12;13.50;99.90
9847;DHT22;68671;50.084;8.794;2024-01-25T13:38:43;13.40;99.90
9847;DHT22;68671;50.084;8.794;2024-01-25T13:41:10;13.40;99.90
9847;DHT22;68671;50.084;8.794;2024-01-25T13:43:49;13.40;99.90
9847;DHT22;68671;50.084;8.794;2024-01-25T13:46:16;13.40;99.90
9847;DHT22;68671;50.084;8.794;2024-01-25T13:48:43;13.40;99.90
9847;DHT22;68671;50.084;8.794;2024-01-25T13:51:14;13.40;99.90
9847;DHT22;68671;50.084;8.794;2024-01-25T13:53:41;13.40;99.90
9847;DHT22;68671;50.084;8.794;2024-01-25T13:56:08;13.40;99.90
9847;DHT22;68671;50.084;8.794;2024-01-25T13:58:35;13.40;99.90
9847;DHT22;68671;50.084;8.794;2024-01-25T14:01:04;13.40;99.90
9847;DHT22;68671;50.084;8.794;2024-01-25T14:03:34;13.40;99.90
9847;DHT22;68671;50.084;8.794;2024-01-25T14:06:01;13.40;99.90
9847;DHT22;68671;50.084;8.794;2024-01-25T14:08:32;13.30;99.90
9847;DHT22;68671;50.084;8.794;2024-01-25T14:10:59;13.30;99.90
9847;DHT22;68671;50.084;8.794;2024-01-25T14:13:26;13.40;99.90
9847;DHT22;68671;50.084;8.794;2024-01-25T14:15:53;13.40;99.90
9847;DHT22;68671;50.084;8.794;2024-01-25T14:18:22;13.40;99.90
9847;DHT22;68671;50.084;8.794;2024-01-25T14:20:53;13.40;99.90
9847;DHT22;68671;50.084;8.794;2024-01-25T14:23:22;13.50;99.90
9847;DHT22;68671;50.084;8.794;2024-01-25T14:25:49;13.50;99.90
9847;DHT22;68671;50.084;8.794;2024-01-25T14:28:20;13.50;99.90
9847;DHT22;68671;50.084;8.794;2024-01-25T14:30:48;13.50;99.90
9847;DHT22;68671;50.084;8.794;2024-01-25T14:33:16;13.60;99.90
9847;DHT22;68671;50.084;8.794;2024-01-25T14:35:47;13.60;99.90
9847;DHT22;68671;50.084;8.794;2024-01-25T14:38:15;13.60;99.90
9847;DHT22;68671;50.084;8.794;2024-01-25T14:40:48;13.60;99.90
9847;DHT22;68671;50.084;8.794;2024-01-25T14:43:15;13.60;99.90
9847;DHT22;68671;50.084;8.794;2024-01-25T14:45:46;13.60;99.90
9847;DHT22;68671;50.084;8.794;2024-01-25T14:48:15;13.70;99.90
9847;DHT22;68671;50.084;8.794;2024-01-25T14:50:42;13.70;99.90
9847;DHT22;68671;50.084;8.794;2024-01-25T14:53:11;13.70;99.90
9847;DHT22;68671;50.084;8.794;2024-01-25T14:55:40;13.70;99.90
9847;DHT22;68671;50.084;8.794;2024-01-25T14:58:08;13.70;99.90
9847;DHT22;68671;50.084;8.794;2024-01-25T15:00:36;13.70;99.90
9847;DHT22;68671;50.084;8.794;2024-01-25T15:03:03;13.70;99.90
9847;DHT22;68671;50.084;8.794;2024-01-25T15:05:30;13.70;99.90
9847;DHT22;68671;50.084;8.794;2024-01-25T15:07:57;13.70;99.90
9847;DHT22;68671;50.084;8.794;2024-01-25T15:10:26;13.70;99.90
9847;DHT22;68671;50.084;8.794;2024-01-25T15:12:53;13.80;99.90
9847;DHT22;68671;50.084;8.794;2024-01-25T15:15:24;13.70;99.90
9847;DHT22;68671;50.084;8.794;2024-01-25T15:17:53;13.70;99.90
9847;DHT22;68671;50.084;8.794;2024-01-25T15:20:20;13.70;99.90
9847;DHT22;68671;50.084;8.794;2024-01-25T15:22:47;13.70;99.90
9847;DHT22;68671;50.084;8.794;2024-01-25T15:25:15;13.70;99.90
9847;DHT22;68671;50.084;8.794;2024-01-25T15:27:43;13.70;99.90
9847;DHT22;68671;50.084;8.794;2024-01-25T15:30:11;13.70;99.90
9847;DHT22;68671;50.084;8.794;2024-01-25T15:32:39;13.70;99.90
9847;DHT22;68671;50.084;8.794;2024-01-25T15:35:10;13.60;99.90
9847;DHT22;68671;50.084;8.794;2024-01-25T15:37:37;13.60;99.90
9847;DHT22;68671;50.084;8.794;2024-01-25T15:40:07;13.50;99.90
9847;DHT22;68671;50.084;8.794;2024-01-25T15:42:37;13.40;99.90
9847;DHT22;68671;50.084;8.794;2024-01-25T15:45:06;13.40;99.90
9847;DHT22;68671;50.084;8.794;2024-01-25T15:47:34;13.40;99.90
9847;DHT22;68671;50.084;8.794;2024-01-25T15:50:01;13.40;99.90